createdAt,value
2023-02-16T00:00:53.713Z,102886.91
2023-02-16T00:03:39.564Z,102886.81
2023-02-16T00:18:56.221Z,102872.34
2023-02-16T00:21:41.979Z,102878.38
2023-02-16T00:24:28.288Z,102879.19
2023-02-16T00:27:14.279Z,102881.97
2023-02-16T00:30:00.519Z,102881.00
2023-02-16T00:32:46.451Z,102876.66
2023-02-16T00:35:33.690Z,102884.22
2023-02-16T00:38:19.470Z,102874.66
2023-02-16T00:41:05.655Z,102881.56
2023-02-16T00:43:54.725Z,102876.25
2023-02-16T00:46:40.636Z,102889.13
2023-02-16T00:49:26.383Z,102884.44
2023-02-16T00:52:20.605Z,102877.41
2023-02-16T00:55:07.456Z,102875.56
2023-02-16T00:57:53.954Z,102864.31
2023-02-16T01:00:40.954Z,102864.22
2023-02-16T01:03:27.926Z,102865.06
2023-02-16T01:06:31.523Z,102849.31
2023-02-16T01:09:37.708Z,102837.25
2023-02-16T01:12:23.998Z,102837.31
2023-02-16T01:15:11.497Z,102832.38
2023-02-16T01:17:57.289Z,102835.94
2023-02-16T01:20:43.142Z,102838.59
2023-02-16T01:23:30.350Z,102830.78
2023-02-16T01:26:18.526Z,102835.28
2023-02-16T01:29:05.201Z,102824.03
2023-02-16T01:31:51.099Z,102828.41
2023-02-16T01:34:37.956Z,102821.53
2023-02-16T01:37:23.889Z,102815.53
2023-02-16T01:40:11.466Z,102807.84
2023-02-16T01:42:59.418Z,102821.00
2023-02-16T01:45:46.569Z,102817.63
2023-02-16T01:48:32.860Z,102801.13
2023-02-16T01:51:20.079Z,102800.81
2023-02-16T01:54:07.682Z,102802.63
2023-02-16T01:56:53.876Z,102793.13
2023-02-16T01:59:43.205Z,102784.59
2023-02-16T02:02:34.312Z,102788.19
2023-02-16T02:05:36.066Z,102789.22
2023-02-16T02:08:23.117Z,102778.88
2023-02-16T02:11:10.226Z,102771.16
2023-02-16T02:13:57.017Z,102773.00
2023-02-16T02:16:45.648Z,102767.91
2023-02-16T02:19:31.936Z,102762.78
2023-02-16T02:22:45.029Z,102757.78
2023-02-16T02:25:49.121Z,102747.34
2023-02-16T02:28:37.682Z,102746.56
2023-02-16T02:31:26.375Z,102741.38
2023-02-16T02:34:14.070Z,102744.94
2023-02-16T02:37:02.954Z,102736.28
2023-02-16T02:39:51.819Z,102731.13
2023-02-16T02:42:38.866Z,102737.31
2023-02-16T02:45:27.708Z,102742.63
2023-02-16T02:48:13.624Z,102740.97
2023-02-16T02:51:17.706Z,102741.06
2023-02-16T02:54:21.973Z,102730.69
2023-02-16T02:57:30.090Z,102738.66
2023-02-16T03:00:34.443Z,102729.16
2023-02-16T03:03:22.640Z,102724.03
2023-02-16T03:06:09.165Z,102724.97
2023-02-16T03:08:56.054Z,102725.72
2023-02-16T03:12:02.066Z,102719.91
2023-02-16T03:14:48.780Z,102725.13
2023-02-16T03:17:53.686Z,102725.19
2023-02-16T03:20:58.810Z,102719.16
2023-02-16T03:24:02.567Z,102712.25
2023-02-16T03:27:09.382Z,102710.63
2023-02-16T03:29:55.638Z,102710.72
2023-02-16T03:32:41.496Z,102722.13
2023-02-16T03:35:27.251Z,102722.13
2023-02-16T03:38:14.316Z,102718.72
2023-02-16T03:41:00.020Z,102722.25
2023-02-16T03:43:45.667Z,102721.38
2023-02-16T03:46:31.471Z,102725.66
2023-02-16T03:49:17.254Z,102727.41
2023-02-16T03:52:03.096Z,102720.47
2023-02-16T03:54:50.742Z,102714.44
2023-02-16T03:57:36.498Z,102725.38
2023-02-16T04:00:22.514Z,102717.31
2023-02-16T04:03:09.233Z,102727.38
2023-02-16T04:05:56.191Z,102744.16
2023-02-16T04:08:41.855Z,102750.16
2023-02-16T04:11:46.579Z,102758.59
2023-02-16T04:14:32.622Z,102760.03
2023-02-16T04:17:18.347Z,102774.41
2023-02-16T04:20:04.415Z,102773.44
2023-02-16T04:22:50.456Z,102775.00
2023-02-16T04:25:36.338Z,102774.00
2023-02-16T04:28:23.630Z,102770.34
2023-02-16T04:31:09.424Z,102773.75
2023-02-16T04:33:55.466Z,102772.03
2023-02-16T04:36:41.452Z,102769.50
2023-02-16T04:39:27.031Z,102767.09
2023-02-16T04:42:13.807Z,102758.63
2023-02-16T04:45:00.896Z,102746.66
2023-02-16T04:47:46.679Z,102744.16
2023-02-16T04:50:32.578Z,102737.38
2023-02-16T04:53:18.733Z,102734.81
2023-02-16T04:56:05.278Z,102732.25
2023-02-16T04:58:51.391Z,102743.69
2023-02-16T05:01:38.450Z,102735.97
2023-02-16T05:04:24.523Z,102738.72
2023-02-16T05:07:10.938Z,102744.03
2023-02-16T05:09:56.854Z,102745.91
2023-02-16T05:13:00.203Z,102736.38
2023-02-16T05:15:46.333Z,102732.88
2023-02-16T05:18:33.865Z,102729.38
2023-02-16T05:21:31.953Z,102740.44
2023-02-16T05:24:17.943Z,102741.09
2023-02-16T05:27:03.925Z,102749.56
2023-02-16T05:29:49.729Z,102748.50
2023-02-16T05:32:35.479Z,102749.31
2023-02-16T05:35:22.632Z,102754.38
2023-02-16T05:38:08.535Z,102764.13
2023-02-16T05:40:54.227Z,102759.88
2023-02-16T05:43:40.071Z,102760.00
2023-02-16T05:46:26.174Z,102769.72
2023-02-16T05:49:12.203Z,102755.16
2023-02-16T05:51:59.482Z,102760.44
2023-02-16T05:54:45.277Z,102753.59
2023-02-16T05:57:33.548Z,102753.44
2023-02-16T06:00:19.571Z,102759.16
2023-02-16T06:03:05.248Z,102775.22
2023-02-16T06:05:53.516Z,102780.03
2023-02-16T06:08:40.599Z,102794.34
2023-02-16T06:11:38.707Z,102792.22
2023-02-16T06:14:24.904Z,102797.09
2023-02-16T06:17:11.177Z,102791.72
2023-02-16T06:19:57.103Z,102795.03
2023-02-16T06:22:43.085Z,102796.66
2023-02-16T06:25:31.527Z,102796.69
2023-02-16T06:28:17.755Z,102793.25
2023-02-16T06:31:05.209Z,102790.69
2023-02-16T06:33:54.315Z,102792.31
2023-02-16T06:36:42.880Z,102786.97
2023-02-16T06:39:28.717Z,102787.69
2023-02-16T06:42:19.188Z,102784.13
2023-02-16T06:45:12.886Z,102784.84
2023-02-16T06:47:59.269Z,102775.13
2023-02-16T06:50:45.464Z,102771.47
2023-02-16T06:53:36.963Z,102774.81
2023-02-16T06:56:23.335Z,102780.59
2023-02-16T06:59:13.074Z,102764.59
2023-02-16T07:02:00.223Z,102766.13
2023-02-16T07:04:46.692Z,102758.97
2023-02-16T07:07:32.704Z,102750.09
2023-02-16T07:10:22.015Z,102750.09
2023-02-16T07:13:08.086Z,102757.69
2023-02-16T07:15:55.129Z,102746.19
2023-02-16T07:18:41.016Z,102733.06
2023-02-16T07:21:26.764Z,102718.88
2023-02-16T07:24:12.573Z,102709.13
2023-02-16T07:26:58.510Z,102698.47
2023-02-16T07:29:46.663Z,102694.81
2023-02-16T07:32:33.993Z,102690.25
2023-02-16T07:35:19.716Z,102696.13
2023-02-16T07:38:06.084Z,102677.53
2023-02-16T07:40:52.517Z,102671.13
2023-02-16T07:43:38.974Z,102666.44
2023-02-16T07:46:24.910Z,102669.25
2023-02-16T07:49:12.174Z,102656.66
2023-02-16T07:51:58.037Z,102642.97
2023-02-16T07:54:43.852Z,102634.69
2023-02-16T07:57:29.991Z,102619.41
2023-02-16T08:00:16.288Z,102616.44
2023-02-16T08:03:02.524Z,102594.88
2023-02-16T08:05:50.294Z,102575.16
2023-02-16T08:08:35.985Z,102550.91
2023-02-16T08:11:22.532Z,102532.00
2023-02-16T08:14:08.305Z,102506.91
2023-02-16T08:16:56.554Z,102484.19
2023-02-16T08:19:42.419Z,102452.84
2023-02-16T08:22:30.687Z,102417.91
2023-02-16T08:25:16.420Z,102393.72
2023-02-16T08:28:02.313Z,102366.59
2023-02-16T08:30:48.815Z,102323.00
2023-02-16T08:33:34.849Z,102279.22
2023-02-16T08:36:21.477Z,102247.94
2023-02-16T08:39:10.017Z,102199.75
2023-02-16T08:41:55.832Z,102147.41
2023-02-16T08:44:42.107Z,102105.28
2023-02-16T08:47:29.554Z,102034.47
2023-02-16T08:50:16.837Z,101982.25
2023-02-16T08:53:03.246Z,101929.03
2023-02-16T08:55:54.135Z,101875.03
2023-02-16T08:58:40.070Z,101834.06
2023-02-16T09:01:26.468Z,101793.16
2023-02-16T09:04:12.927Z,101755.81
2023-02-16T09:06:59.538Z,101710.72
2023-02-16T09:09:45.719Z,101681.31
2023-02-16T09:12:35.247Z,101645.00
2023-02-16T09:15:22.281Z,101619.03
2023-02-16T09:18:09.015Z,101597.63
2023-02-16T09:20:54.999Z,101582.41
2023-02-16T09:23:41.397Z,101573.34
2023-02-16T09:26:31.470Z,101554.63
2023-02-16T09:29:18.521Z,101543.66
2023-02-16T09:32:04.330Z,101547.06
2023-02-16T09:34:51.204Z,101546.63
2023-02-16T09:37:37.066Z,101543.03
2023-02-16T09:40:23.187Z,101531.84
2023-02-16T09:43:09.558Z,101523.56
2023-02-16T09:45:58.651Z,101528.09
2023-02-16T09:48:45.414Z,101519.75
2023-02-16T09:51:34.848Z,101521.00
2023-02-16T09:54:21.285Z,101590.97
2023-02-16T09:57:09.143Z,101592.44
2023-02-16T09:59:56.915Z,101590.31
2023-02-16T10:02:46.631Z,101603.31
2023-02-16T10:05:33.769Z,101612.69
2023-02-16T10:08:22.670Z,101597.50
2023-02-16T10:11:29.466Z,101595.25
2023-02-16T10:14:18.074Z,101591.41
2023-02-16T10:17:07.664Z,101590.78
2023-02-16T10:19:56.175Z,101587.56
2023-02-16T10:22:42.776Z,101591.47
2023-02-16T10:25:30.615Z,101591.84
2023-02-16T10:28:18.010Z,101592.78
2023-02-16T10:31:05.834Z,101605.31
2023-02-16T10:33:55.869Z,101607.19
2023-02-16T10:36:47.830Z,101601.91
2023-02-16T10:39:35.121Z,101604.97
2023-02-16T10:42:23.685Z,101604.66
2023-02-16T10:45:16.639Z,101609.47
2023-02-16T10:48:02.773Z,101603.94
2023-02-16T10:50:51.122Z,101603.72
2023-02-16T10:53:40.486Z,101610.72
2023-02-16T10:56:39.341Z,101605.19
2023-02-16T10:59:26.322Z,101606.16
2023-02-16T11:02:17.913Z,101607.34
2023-02-16T11:05:06.331Z,101603.50
2023-02-16T11:07:53.317Z,101600.78
2023-02-16T11:10:46.114Z,101597.75
2023-02-16T11:13:33.755Z,101599.94
2023-02-16T11:16:20.459Z,101579.00
2023-02-16T11:19:07.007Z,101590.81
2023-02-16T11:21:55.129Z,101593.09
2023-02-16T11:24:41.022Z,101597.78
2023-02-16T11:27:28.112Z,101587.91
2023-02-16T11:30:22.439Z,101590.31
2023-02-16T11:33:19.817Z,101589.59
2023-02-16T11:36:07.312Z,101583.56
2023-02-16T11:38:57.544Z,101574.41
2023-02-16T11:41:44.191Z,101581.28
2023-02-16T11:44:32.722Z,101576.84
2023-02-16T11:47:22.304Z,101574.66
2023-02-16T11:50:19.938Z,101586.84
2023-02-16T11:53:14.735Z,101585.41
2023-02-16T11:56:12.622Z,101586.34
2023-02-16T11:59:09.063Z,101586.91
2023-02-16T12:02:13.143Z,101591.44
2023-02-16T12:05:03.291Z,101579.03
2023-02-16T12:07:50.954Z,101582.31
2023-02-16T12:10:38.796Z,101589.06
2023-02-16T12:13:26.664Z,101593.88
2023-02-16T12:16:17.663Z,101596.41
2023-02-16T12:19:12.286Z,101589.28
2023-02-16T12:21:58.954Z,101583.25
2023-02-16T12:24:47.409Z,101588.03
2023-02-16T12:27:34.410Z,101572.31
2023-02-16T12:30:23.635Z,101562.94
2023-02-16T12:33:13.110Z,101569.81
2023-02-16T12:36:04.176Z,101569.03
2023-02-16T12:38:52.935Z,101568.38
2023-02-16T12:41:42.390Z,101569.28
2023-02-16T12:44:30.916Z,101564.06
2023-02-16T12:47:18.205Z,101563.25
2023-02-16T12:50:04.421Z,101560.41
2023-02-16T12:52:53.130Z,101567.16
2023-02-16T12:55:39.654Z,101566.00
2023-02-16T12:58:26.171Z,101565.47
2023-02-16T13:01:14.570Z,101554.81
2023-02-16T13:04:01.039Z,101553.25
2023-02-16T13:06:48.306Z,101549.72
2023-02-16T13:09:37.999Z,101550.41
2023-02-16T13:12:25.916Z,101549.97
2023-02-16T13:15:13.120Z,101556.28
2023-02-16T13:17:59.690Z,101544.13
2023-02-16T13:20:46.413Z,101536.75
2023-02-16T13:23:41.169Z,101534.06
2023-02-16T13:26:38.499Z,101528.22
2023-02-16T13:29:47.502Z,101530.16
2023-02-16T13:32:46.611Z,101527.31
2023-02-16T13:35:42.820Z,101520.44
2023-02-16T13:38:36.011Z,101511.63
2023-02-16T13:41:36.895Z,101508.22
2023-02-16T13:44:24.561Z,101506.69
2023-02-16T13:47:11.375Z,101500.63
2023-02-16T13:49:58.549Z,101506.88
2023-02-16T13:52:44.752Z,101496.22
2023-02-16T13:55:31.866Z,101488.59
2023-02-16T13:58:31.148Z,101480.75
2023-02-16T14:01:42.903Z,101474.72
2023-02-16T14:04:58.983Z,101465.44
2023-02-16T14:07:45.113Z,101462.34
2023-02-16T14:10:45.881Z,101450.44
2023-02-16T14:13:32.202Z,101454.19
2023-02-16T14:16:29.272Z,101441.88
2023-02-16T14:19:20.741Z,101440.41
2023-02-16T14:22:10.858Z,101424.47
2023-02-16T14:24:57.980Z,101426.44
2023-02-16T14:27:45.901Z,101421.97
2023-02-16T14:30:32.654Z,101418.59
2023-02-16T14:33:19.601Z,101417.59
2023-02-16T14:36:09.037Z,101420.47
2023-02-16T14:38:58.172Z,101426.63
2023-02-16T14:41:43.969Z,101431.06
2023-02-16T14:44:38.597Z,101428.19
2023-02-16T14:47:26.927Z,101425.91
2023-02-16T14:50:17.502Z,101423.09
2023-02-16T14:53:21.554Z,101424.63
2023-02-16T14:56:32.057Z,101430.00
2023-02-16T14:59:21.717Z,101436.66
2023-02-16T15:02:22.640Z,101433.53
2023-02-16T15:05:16.109Z,101441.28
2023-02-16T15:08:03.355Z,101437.06
2023-02-16T15:10:53.997Z,101433.84
2023-02-16T15:13:39.964Z,101426.63
2023-02-16T15:16:25.855Z,101426.88
2023-02-16T15:19:15.693Z,101430.75
2023-02-16T15:22:08.403Z,101422.09
2023-02-16T15:24:58.592Z,101427.88
2023-02-16T15:27:53.993Z,101423.91
2023-02-16T15:30:41.102Z,101418.03
2023-02-16T15:33:28.611Z,101419.00
2023-02-16T15:36:16.228Z,101419.50
2023-02-16T15:39:02.745Z,101412.59
2023-02-16T15:41:48.912Z,101418.28
2023-02-16T15:44:36.757Z,101413.94
2023-02-16T15:47:23.299Z,101416.97
2023-02-16T15:50:12.299Z,101410.25
2023-02-16T15:52:58.167Z,101409.63
2023-02-16T15:55:44.524Z,101400.38
2023-02-16T15:58:31.073Z,101407.59
2023-02-16T16:01:31.235Z,101409.78
2023-02-16T16:04:18.629Z,101398.22
2023-02-16T16:07:04.845Z,101401.97
2023-02-16T16:09:50.699Z,101399.66
2023-02-16T16:12:36.493Z,101411.94
2023-02-16T16:15:23.158Z,101404.22
2023-02-16T16:18:21.820Z,101405.31
2023-02-16T16:21:22.455Z,101408.22
2023-02-16T16:24:08.865Z,101403.16
2023-02-16T16:26:56.222Z,101406.19
2023-02-16T16:29:44.023Z,101407.97
2023-02-16T16:32:29.664Z,101404.72
2023-02-16T16:35:21.201Z,101410.13
2023-02-16T16:38:10.173Z,101411.34
2023-02-16T16:40:59.326Z,101409.63
2023-02-16T16:43:53.746Z,101409.63
2023-02-16T16:46:39.988Z,101410.50
2023-02-16T16:49:26.139Z,101408.91
2023-02-16T16:52:13.195Z,101411.56
2023-02-16T16:54:59.291Z,101408.19
2023-02-16T16:57:45.422Z,101403.00
2023-02-16T17:00:34.081Z,101400.38
2023-02-16T17:03:20.521Z,101409.38
2023-02-16T17:06:08.354Z,101408.66
2023-02-16T17:08:56.018Z,101399.97
2023-02-16T17:11:42.622Z,101406.25
2023-02-16T17:14:28.712Z,101408.16
2023-02-16T17:17:14.568Z,101408.16
2023-02-16T17:20:00.443Z,101403.72
2023-02-16T17:22:46.336Z,101403.72
2023-02-16T17:25:34.322Z,101396.75
2023-02-16T17:28:20.636Z,101399.25
2023-02-16T17:31:07.273Z,101402.28
2023-02-16T17:33:53.213Z,101398.06
2023-02-16T17:36:40.098Z,101393.63
2023-02-16T17:39:26.378Z,101389.28
2023-02-16T17:42:13.457Z,101389.28
2023-02-16T17:44:59.405Z,101395.53
2023-02-16T17:47:47.694Z,101380.84
2023-02-16T17:50:33.632Z,101383.59
2023-02-16T17:53:21.535Z,101387.44
2023-02-16T17:56:07.804Z,101402.72
2023-02-16T17:58:55.145Z,101403.81
2023-02-16T18:01:41.381Z,101410.31
2023-02-16T18:04:27.475Z,101408.38
2023-02-16T18:07:13.634Z,101417.16
2023-02-16T18:09:59.790Z,101419.94
2023-02-16T18:12:45.657Z,101430.50
2023-02-16T18:15:32.888Z,101435.16
2023-02-16T18:18:19.574Z,101441.31
2023-02-16T18:21:06.035Z,101436.97
2023-02-16T18:23:52.198Z,101440.59
2023-02-16T18:26:38.088Z,101438.16
2023-02-16T18:29:24.034Z,101432.03
2023-02-16T18:32:11.821Z,101440.81
2023-02-16T18:34:58.117Z,101434.56
2023-02-16T18:37:44.664Z,101436.25
2023-02-16T18:40:30.984Z,101436.47
2023-02-16T18:43:17.101Z,101443.47
2023-02-16T18:46:05.597Z,101435.53
2023-02-16T18:48:53.285Z,101441.78
2023-02-16T18:51:39.227Z,101443.47
2023-02-16T18:54:25.488Z,101441.78
2023-02-16T18:57:11.326Z,101437.44
2023-02-16T18:59:59.162Z,101442.63
2023-02-16T19:02:45.077Z,101441.66
2023-02-16T19:05:32.228Z,101448.53
2023-02-16T19:08:18.044Z,101448.63
2023-02-16T19:11:03.847Z,101441.53
2023-02-16T19:13:50.081Z,101451.16
2023-02-16T19:16:36.372Z,101443.22
2023-02-16T19:19:22.707Z,101442.38
2023-02-16T19:22:10.288Z,101441.53
2023-02-16T19:24:56.199Z,101443.22
2023-02-16T19:27:42.498Z,101440.09
2023-02-16T19:30:28.679Z,101444.66
2023-02-16T19:33:14.725Z,101440.09
2023-02-16T19:36:01.573Z,101440.34
2023-02-16T19:38:48.848Z,101441.06
2023-02-16T19:41:36.368Z,101430.72
2023-02-16T19:44:22.116Z,101430.72
2023-02-16T19:47:07.907Z,101435.28
2023-02-16T19:49:54.287Z,101433.59
2023-02-16T19:52:40.532Z,101429.97
2023-02-16T19:55:28.201Z,101438.88
2023-02-16T19:58:14.029Z,101435.28
2023-02-16T20:00:59.758Z,101433.34
2023-02-16T20:03:46.970Z,101425.66
2023-02-16T20:06:34.238Z,101443.66
2023-02-16T20:09:20.302Z,101441.00
2023-02-16T20:12:07.857Z,101449.91
2023-02-16T20:14:53.692Z,101456.16
2023-02-16T20:17:39.516Z,101456.88
2023-02-16T20:20:25.351Z,101461.44
2023-02-16T20:23:11.001Z,101451.69
2023-02-16T20:25:56.881Z,101454.47
2023-02-16T20:28:44.568Z,101458.19
2023-02-16T20:31:31.287Z,101454.47
2023-02-16T20:34:17.596Z,101454.69
2023-02-16T20:37:03.437Z,101454.81
2023-02-16T20:39:49.938Z,101457.56
2023-02-16T20:42:36.526Z,101464.78
2023-02-16T20:45:24.314Z,101462.88
2023-02-16T20:48:10.732Z,101469.00
2023-02-16T20:50:57.507Z,101471.53
2023-02-16T20:53:44.223Z,101474.16
2023-02-16T20:56:30.227Z,101478.50
2023-02-16T20:59:16.829Z,101477.66
2023-02-16T21:02:04.589Z,101472.25
2023-02-16T21:04:50.904Z,101479.22
2023-02-16T21:07:37.130Z,101474.78
2023-02-16T21:10:23.429Z,101475.63
2023-02-16T21:13:09.401Z,101464.44
2023-02-16T21:19:22.248Z,101461.06
2023-02-16T21:22:29.565Z,101463.94
2023-02-16T21:25:19.238Z,101465.00
2023-02-16T21:28:05.242Z,101459.72
2023-02-16T21:30:51.805Z,101461.63
2023-02-16T21:33:49.886Z,101467.84
2023-02-16T21:36:39.165Z,101478.66
2023-02-16T21:39:44.927Z,101487.56
2023-02-16T21:42:30.804Z,101499.78
2023-02-16T21:45:19.737Z,101504.31
2023-02-16T21:48:23.775Z,101518.59
2023-02-16T21:51:09.814Z,101546.09
2023-02-16T21:53:57.626Z,101568.31
2023-02-16T21:56:43.492Z,101579.00
2023-02-16T21:59:29.419Z,101600.25
2023-02-16T22:02:16.748Z,101617.19
2023-02-16T22:05:03.102Z,101649.97
2023-02-16T22:07:55.528Z,101682.53
2023-02-16T22:10:48.651Z,101715.09
2023-02-16T22:13:35.741Z,101745.97
2023-02-16T22:16:23.691Z,101757.41
2023-02-16T22:19:13.710Z,101799.69
2023-02-16T22:21:59.528Z,101823.38
2023-02-16T22:24:45.465Z,101837.31
2023-02-16T22:27:32.836Z,101848.75
2023-02-16T22:30:18.759Z,101883.00
2023-02-16T22:33:04.933Z,101916.53
2023-02-16T22:35:50.838Z,101935.88
2023-02-16T22:38:36.667Z,101951.75
2023-02-16T22:41:22.688Z,101968.56
2023-02-16T22:44:10.674Z,101984.31
2023-02-16T22:46:56.208Z,101993.00
2023-02-16T22:49:41.987Z,102000.81
2023-02-16T22:52:28.131Z,102009.50
2023-02-16T22:55:14.018Z,102013.84
2023-02-16T22:57:59.907Z,102024.31
2023-02-16T23:00:47.348Z,102034.91
2023-02-16T23:03:33.422Z,102049.75
2023-02-16T23:06:20.236Z,102048.69
2023-02-16T23:09:06.916Z,102052.72
2023-02-16T23:11:52.847Z,102054.44
2023-02-16T23:14:38.898Z,102047.25
2023-02-16T23:17:25.895Z,102052.53
2023-02-16T23:20:12.094Z,102065.44
2023-02-16T23:22:58.104Z,102061.00
2023-02-16T23:25:46.994Z,102060.72
2023-02-16T23:28:32.666Z,102069.41
2023-02-16T23:31:18.580Z,102069.31
2023-02-16T23:34:06.517Z,102071.66
2023-02-16T23:36:52.582Z,102066.38
2023-02-16T23:39:38.291Z,102070.59
2023-02-16T23:42:24.152Z,102069.66
2023-02-16T23:45:10.177Z,102065.97
2023-02-16T23:47:56.331Z,102070.22
2023-02-16T23:50:43.383Z,102063.97
2023-02-16T23:53:29.803Z,102065.56
2023-02-16T23:56:16.143Z,102062.63
2023-02-16T23:59:02.289Z,102051.19
